Private Wetterstation Wechselburg
Wetterdaten: Mittwoch, 11.08.2021
Datum Zeit Temp. +2m Bodentemp. Temp.+5cm Temp. Wind Windchill X Diff Temp. Feuchte +2m Feuchte +5cm Luftdruck Regen Wind Richtung Richtung Sonnenschein Taupunkt Windchill Windben
11.08.2021 00:00 15,3 C 19,2 C 15,3 C 15,2 C 15,0 C 0,0 C 87 % 91 % 1017,4 hPa 0,0 l/m 0,8 km/h (0 Bft) W-SW 247 0 min 13,1 C 15,0 C 2,4 km/h (1 Bft)
11.08.2021 00:05 15,5 C 19,3 C 15,4 C 15,3 C 15,0 C 0,0 C 87 % 91 % 1017,4 hPa 0,0 l/m 1,1 km/h (1 Bft) S 180 0 min 13,3 C 15,0 C 0,0 km/h (0 Bft)
11.08.2021 00:10 15,5 C 19,3 C 15,4 C 15,3 C 15,0 C 0,0 C 87 % 91 % 1017,4 hPa 0,0 l/m 1,1 km/h (1 Bft) S 180 0 min 13,3 C 15,0 C 0,0 km/h (0 Bft)
11.08.2021 00:15 15,5 C 19,3 C 15,4 C 15,3 C 15,0 C 0,0 C 87 % 91 % 1017,4 hPa 0,0 l/m 0,8 km/h (0 Bft) S 180 0 min 13,3 C 15,0 C 0,0 km/h (0 Bft)
11.08.2021 00:20 15,5 C 19,3 C 15,4 C 15,3 C 14,9 C 0,0 C 87 % 91 % 1017,2 hPa 0,0 l/m 0,0 km/h (0 Bft) S 180 0 min 13,3 C 14,9 C 0,0 km/h (0 Bft)
11.08.2021 00:25 15,5 C 19,4 C 15,4 C 15,3 C 14,9 C 0,0 C 87 % 91 % 1017,2 hPa 0,0 l/m 0,0 km/h (0 Bft) S 180 0 min 13,3 C 14,9 C 0,0 km/h (0 Bft)
11.08.2021 00:30 15,5 C 19,4 C 15,3 C 15,3 C 14,9 C 0,0 C 87 % 91 % 1017,2 hPa 0,0 l/m 0,0 km/h (0 Bft) S 180 0 min 13,3 C 14,9 C 0,0 km/h (0 Bft)
11.08.2021 00:35 15,5 C 19,4 C 15,3 C 15,3 C 14,9 C 0,0 C 87 % 91 % 1017,2 hPa 0,0 l/m 0,0 km/h (0 Bft) S 180 0 min 13,3 C 14,9 C 0,0 km/h (0 Bft)
11.08.2021 00:40 15,4 C 19,4 C 15,2 C 15,2 C 14,9 C 0,0 C 87 % 91 % 1016,9 hPa 0,0 l/m 0,0 km/h (0 Bft) S 180 0 min 13,2 C 14,9 C 0,0 km/h (0 Bft)
11.08.2021 00:45 15,5 C 19,4 C 15,2 C 15,3 C 15,0 C 0,0 C 87 % 91 % 1016,9 hPa 0,0 l/m 0,0 km/h (0 Bft) S 180 0 min 13,3 C 15,0 C 0,0 km/h (0 Bft)
11.08.2021 00:50 15,4 C 19,4 C 15,2 C 15,2 C 14,8 C 0,0 C 87 % 91 % 1016,9 hPa 0,0 l/m 0,0 km/h (0 Bft) S 180 0 min 13,2 C 14,8 C 0,0 km/h (0 Bft)
11.08.2021 00:55 15,4 C 19,3 C 15,1 C 15,2 C 14,8 C 0,0 C 87 % 91 % 1016,9 hPa 0,0 l/m 0,0 km/h (0 Bft) S 180 0 min 13,2 C 14,8 C 0,0 km/h (0 Bft)
11.08.2021 01:00 15,3 C 19,3 C 15,1 C 15,1 C 14,8 C 0,0 C 87 % 91 % 1016,8 hPa 0,0 l/m 0,0 km/h (0 Bft) SO 135 0 min 13,1 C 14,8 C 0,0 km/h (0 Bft)
11.08.2021 01:05 15,3 C 19,3 C 15,1 C 15,1 C 14,7 C 0,0 C 87 % 91 % 1016,8 hPa 0,0 l/m 0,0 km/h (0 Bft) SW 225 0 min 13,1 C 14,7 C 0,0 km/h (0 Bft)
11.08.2021 01:10 15,2 C 19,3 C 15,1 C 15,0 C 14,6 C 0,0 C 87 % 91 % 1016,8 hPa 0,0 l/m 0,2 km/h (0 Bft) W-SW 247 0 min 13,0 C 14,6 C 0,0 km/h (0 Bft)
11.08.2021 01:15 15,3 C 19,3 C 15,1 C 15,0 C 14,5 C 0,0 C 87 % 91 % 1016,8 hPa 0,0 l/m 0,2 km/h (0 Bft) S 180 0 min 13,1 C 14,5 C 0,0 km/h (0 Bft)
11.08.2021 01:20 15,2 C 19,3 C 15,0 C 15,0 C 14,5 C 0,0 C 87 % 91 % 1017,4 hPa 0,0 l/m 0,0 km/h (0 Bft) S 180 0 min 13,0 C 14,5 C 0,0 km/h (0 Bft)
11.08.2021 01:25 15,2 C 19,3 C 15,0 C 15,0 C 14,5 C 0,0 C 87 % 91 % 1017,4 hPa 0,0 l/m 0,0 km/h (0 Bft) S 180 0 min 13,0 C 14,5 C 0,0 km/h (0 Bft)
11.08.2021 01:30 15,0 C 19,3 C 15,0 C 14,8 C 14,5 C 0,0 C 87 % 91 % 1017,4 hPa 0,0 l/m 0,0 km/h (0 Bft) O-SO 112 0 min 12,9 C 14,5 C 0,0 km/h (0 Bft)
11.08.2021 01:35 15,1 C 19,4 C 14,9 C 14,9 C 14,4 C 0,0 C 87 % 91 % 1017,1 hPa 0,0 l/m 0,0 km/h (0 Bft) S-SW 202 0 min 13,0 C 14,4 C 0,0 km/h (0 Bft)
11.08.2021 01:40 15,0 C 19,4 C 14,9 C 14,8 C 14,3 C 0,0 C 87 % 91 % 1017,1 hPa 0,0 l/m 0,0 km/h (0 Bft) S-SO 157 0 min 12,9 C 14,3 C 0,0 km/h (0 Bft)
11.08.2021 01:45 15,0 C 19,4 C 14,9 C 14,8 C 14,3 C 0,0 C 87 % 91 % 1017,1 hPa 0,0 l/m 0,0 km/h (0 Bft) S-SO 157 0 min 12,9 C 14,3 C 0,0 km/h (0 Bft)
11.08.2021 01:50 14,9 C 19,4 C 14,7 C 14,7 C 14,3 C 0,0 C 87 % 91 % 1017,1 hPa 0,0 l/m 0,0 km/h (0 Bft) SO 135 0 min 12,8 C 14,3 C 0,0 km/h (0 Bft)
11.08.2021 01:55 14,8 C 19,3 C 14,7 C 14,6 C 14,1 C 0,0 C 87 % 91 % 1017,2 hPa 0,0 l/m 0,0 km/h (0 Bft) O-SO 112 0 min 12,7 C 14,1 C 0,0 km/h (0 Bft)
11.08.2021 02:00 14,8 C 19,3 C 14,7 C 14,6 C 14,1 C 0,0 C 87 % 91 % 1017,2 hPa 0,0 l/m 0,0 km/h (0 Bft) O-SO 112 0 min 12,7 C 14,1 C 0,0 km/h (0 Bft)
11.08.2021 02:05 14,7 C 19,3 C 14,6 C 14,5 C 14,1 C 0,0 C 87 % 91 % 1017,2 hPa 0,0 l/m 0,0 km/h (0 Bft) O-SO 112 0 min 12,6 C 14,1 C 0,0 km/h (0 Bft)
11.08.2021 02:10 14,6 C 19,3 C 14,6 C 14,4 C 14,1 C 0,0 C 87 % 91 % 1017,2 hPa 0,0 l/m 0,0 km/h (0 Bft) O-SO 112 0 min 12,5 C 14,1 C 0,0 km/h (0 Bft)
11.08.2021 02:15 14,7 C 19,3 C 14,5 C 14,5 C 14,1 C 0,0 C 87 % 92 % 1017,2 hPa 0,0 l/m 0,0 km/h (0 Bft) O-SO 112 0 min 12,6 C 14,1 C 0,0 km/h (0 Bft)
11.08.2021 02:20 14,6 C 19,3 C 14,6 C 14,5 C 14,2 C 0,0 C 87 % 92 % 1017,1 hPa 0,0 l/m 0,0 km/h (0 Bft) S-SO 157 0 min 12,5 C 14,2 C 0,0 km/h (0 Bft)
11.08.2021 02:25 14,6 C 19,3 C 14,6 C 14,5 C 14,2 C 0,0 C 87 % 92 % 1017,1 hPa 0,0 l/m 0,0 km/h (0 Bft) S-SO 157 0 min 12,5 C 14,2 C 0,0 km/h (0 Bft)
11.08.2021 02:30 14,5 C 19,3 C 14,5 C 14,4 C 14,1 C 0,0 C 87 % 92 % 1017,1 hPa 0,0 l/m 0,0 km/h (0 Bft) SO 135 0 min 12,4 C 14,1 C 0,0 km/h (0 Bft)
11.08.2021 02:35 14,5 C 19,3 C 14,5 C 14,4 C 14,1 C 0,0 C 87 % 92 % 1017,1 hPa 0,0 l/m 0,0 km/h (0 Bft) SO 135 0 min 12,4 C 14,1 C 0,0 km/h (0 Bft)
11.08.2021 02:40 14,4 C 19,3 C 14,4 C 14,2 C 13,9 C 0,0 C 87 % 92 % 1017,1 hPa 0,0 l/m 0,0 km/h (0 Bft) SO 135 0 min 12,3 C 13,9 C 0,0 km/h (0 Bft)
11.08.2021 02:45 14,3 C 19,2 C 14,1 C 14,1 C 13,6 C 0,0 C 87 % 92 % 1017,1 hPa 0,0 l/m 0,0 km/h (0 Bft) SO 135 0 min 12,2 C 13,6 C 0,0 km/h (0 Bft)
11.08.2021 02:50 14,3 C 19,2 C 14,1 C 14,0 C 13,5 C 0,0 C 87 % 92 % 1017,1 hPa 0,0 l/m 0,0 km/h (0 Bft) SO 135 0 min 12,2 C 13,5 C 0,0 km/h (0 Bft)
11.08.2021 02:55 14,3 C 19,2 C 14,0 C 14,0 C 13,3 C 0,0 C 87 % 92 % 1017,2 hPa 0,0 l/m 0,0 km/h (0 Bft) SO 135 0 min 12,2 C 13,3 C 0,0 km/h (0 Bft)
11.08.2021 03:00 14,3 C 19,2 C 14,0 C 14,0 C 13,3 C 0,0 C 87 % 92 % 1017,2 hPa 0,0 l/m 0,0 km/h (0 Bft) SO 135 0 min 12,2 C 13,3 C 0,0 km/h (0 Bft)
11.08.2021 03:05 14,0 C 19,2 C 13,9 C 13,7 C 13,2 C 0,0 C 87 % 92 % 1017,2 hPa 0,0 l/m 0,0 km/h (0 Bft) SO 135 0 min 11,9 C 13,2 C 0,0 km/h (0 Bft)
11.08.2021 03:10 14,0 C 19,2 C 13,9 C 13,7 C 13,2 C 0,0 C 87 % 92 % 1017,2 hPa 0,0 l/m 0,0 km/h (0 Bft) SO 135 0 min 11,9 C 13,2 C 0,0 km/h (0 Bft)
11.08.2021 03:15 14,0 C 19,2 C 13,9 C 13,7 C 13,1 C 0,0 C 88 % 92 % 1017,3 hPa 0,0 l/m 0,0 km/h (0 Bft) SO 135 0 min 12,0 C 13,1 C 0,0 km/h (0 Bft)
11.08.2021 03:20 13,9 C 19,2 C 13,9 C 13,6 C 13,1 C 0,0 C 87 % 92 % 1017,3 hPa 0,0 l/m 0,0 km/h (0 Bft) SO 135 0 min 11,8 C 13,1 C 0,0 km/h (0 Bft)
11.08.2021 03:25 13,8 C 19,2 C 13,9 C 13,6 C 13,2 C 0,0 C 87 % 92 % 1017,3 hPa 0,0 l/m 0,0 km/h (0 Bft) SO 135 0 min 11,7 C 13,2 C 0,0 km/h (0 Bft)
11.08.2021 03:30 13,9 C 19,1 C 13,9 C 13,7 C 13,2 C 0,0 C 87 % 92 % 1017,3 hPa 0,0 l/m 0,0 km/h (0 Bft) SO 135 0 min 11,8 C 13,2 C 0,0 km/h (0 Bft)
11.08.2021 03:35 13,8 C 19,1 C 13,8 C 13,6 C 13,2 C 0,0 C 87 % 92 % 1017,4 hPa 0,0 l/m 0,0 km/h (0 Bft) SO 135 0 min 11,7 C 13,2 C 0,0 km/h (0 Bft)
11.08.2021 03:40 13,8 C 19,1 C 13,8 C 13,6 C 13,2 C 0,0 C 87 % 92 % 1017,4 hPa 0,0 l/m 0,0 km/h (0 Bft) SO 135 0 min 11,7 C 13,2 C 0,0 km/h (0 Bft)
11.08.2021 03:45 13,6 C 19,1 C 13,7 C 13,4 C 13,1 C 0,0 C 88 % 92 % 1017,4 hPa 0,0 l/m 0,0 km/h (0 Bft) SO 135 0 min 11,6 C 13,1 C 0,0 km/h (0 Bft)
11.08.2021 03:50 13,7 C 19,1 C 13,6 C 13,5 C 13,1 C 0,0 C 87 % 92 % 1017,4 hPa 0,0 l/m 0,0 km/h (0 Bft) SO 135 0 min 11,6 C 13,1 C 0,0 km/h (0 Bft)
11.08.2021 03:55 13,5 C 19,1 C 13,6 C 13,3 C 13,0 C 0,0 C 87 % 92 % 1017,5 hPa 0,0 l/m 0,0 km/h (0 Bft) SO 135 0 min 11,4 C 13,0 C 0,0 km/h (0 Bft)
11.08.2021 04:00 13,5 C 19,1 C 13,5 C 13,3 C 12,8 C 0,0 C 88 % 92 % 1017,5 hPa 0,0 l/m 0,0 km/h (0 Bft) SO 135 0 min 11,6 C 12,8 C 0,0 km/h (0 Bft)
11.08.2021 04:05 13,5 C 19,1 C 13,4 C 13,2 C 12,6 C 0,0 C 88 % 92 % 1017,5 hPa 0,0 l/m 0,0 km/h (0 Bft) SO 135 0 min 11,6 C 12,6 C 0,0 km/h (0 Bft)
11.08.2021 04:10 13,5 C 19,1 C 13,4 C 13,2 C 12,6 C 0,0 C 88 % 92 % 1017,5 hPa 0,0 l/m 0,0 km/h (0 Bft) SO 135 0 min 11,6 C 12,6 C 0,0 km/h (0 Bft)
11.08.2021 04:15 13,4 C 19,0 C 13,3 C 13,1 C 12,5 C 0,0 C 88 % 92 % 1017,5 hPa 0,0 l/m 0,0 km/h (0 Bft) SO 135 0 min 11,5 C 12,5 C 0,0 km/h (0 Bft)
11.08.2021 04:20 13,3 C 19,0 C 13,3 C 13,0 C 12,4 C 0,0 C 88 % 92 % 1017,4 hPa 0,0 l/m 0,0 km/h (0 Bft) SO 135 0 min 11,4 C 12,4 C 0,0 km/h (0 Bft)
11.08.2021 04:25 13,3 C 19,0 C 13,2 C 13,0 C 12,3 C 0,0 C 88 % 92 % 1017,4 hPa 0,0 l/m 0,0 km/h (0 Bft) SO 135 0 min 11,4 C 12,3 C 0,0 km/h (0 Bft)
11.08.2021 04:30 13,1 C 19,0 C 13,1 C 12,8 C 12,2 C 0,0 C 88 % 92 % 1017,4 hPa 0,0 l/m 0,0 km/h (0 Bft) SO 135 0 min 11,2 C 12,2 C 0,0 km/h (0 Bft)
11.08.2021 04:35 13,1 C 19,0 C 13,1 C 12,9 C 12,4 C 0,0 C 88 % 92 % 1017,3 hPa 0,0 l/m 0,0 km/h (0 Bft) SO 135 0 min 11,2 C 12,4 C 0,0 km/h (0 Bft)
11.08.2021 04:40 13,0 C 19,0 C 13,1 C 12,8 C 12,5 C 0,0 C 88 % 93 % 1017,3 hPa 0,0 l/m 0,0 km/h (0 Bft) SO 135 0 min 11,1 C 12,5 C 0,0 km/h (0 Bft)
11.08.2021 04:45 12,9 C 18,9 C 13,1 C 12,8 C 12,6 C 0,0 C 88 % 93 % 1017,3 hPa 0,0 l/m 0,0 km/h (0 Bft) SO 135 0 min 11,0 C 12,6 C 0,0 km/h (0 Bft)
11.08.2021 04:50 12,8 C 18,9 C 13,1 C 12,8 C 12,7 C 0,0 C 88 % 93 % 1017,3 hPa 0,0 l/m 0,0 km/h (0 Bft) SO 135 0 min 10,9 C 12,7 C 0,0 km/h (0 Bft)
11.08.2021 04:55 12,9 C 18,9 C 13,2 C 12,8 C 12,7 C 0,0 C 88 % 93 % 1017,4 hPa 0,0 l/m 0,0 km/h (0 Bft) SO 135 0 min 11,0 C 12,7 C 0,0 km/h (0 Bft)
11.08.2021 05:00 12,8 C 18,9 C 13,3 C 12,8 C 12,8 C 0,0 C 88 % 93 % 1017,4 hPa 0,0 l/m 0,0 km/h (0 Bft) SO 135 0 min 10,9 C 12,8 C 0,0 km/h (0 Bft)
11.08.2021 05:05 12,9 C 18,9 C 13,2 C 12,8 C 12,7 C 0,0 C 88 % 93 % 1017,4 hPa 0,0 l/m 0,0 km/h (0 Bft) SO 135 0 min 11,0 C 12,7 C 0,0 km/h (0 Bft)
11.08.2021 05:10 12,8 C 18,9 C 13,1 C 12,7 C 12,6 C 0,0 C 88 % 93 % 1017,4 hPa 0,0 l/m 0,0 km/h (0 Bft) SO 135 0 min 10,9 C 12,6 C 0,0 km/h (0 Bft)
11.08.2021 05:15 12,8 C 18,9 C 13,1 C 12,7 C 12,5 C 0,0 C 88 % 93 % 1017,6 hPa 0,0 l/m 0,0 km/h (0 Bft) SO 135 0 min 10,9 C 12,5 C 0,0 km/h (0 Bft)
11.08.2021 05:20 12,8 C 18,9 C 13,1 C 12,7 C 12,5 C 0,0 C 88 % 93 % 1017,6 hPa 0,0 l/m 0,0 km/h (0 Bft) SO 135 0 min 10,9 C 12,5 C 0,0 km/h (0 Bft)
11.08.2021 05:25 12,7 C 18,9 C 13,0 C 12,6 C 12,4 C 0,0 C 88 % 93 % 1017,6 hPa 0,0 l/m 0,0 km/h (0 Bft) SO 135 0 min 10,8 C 12,4 C 0,0 km/h (0 Bft)
11.08.2021 05:30 12,7 C 18,9 C 12,9 C 12,6 C 12,3 C 0,0 C 88 % 93 % 1017,6 hPa 0,0 l/m 0,0 km/h (0 Bft) SO 135 0 min 10,8 C 12,3 C 0,0 km/h (0 Bft)
11.08.2021 05:35 12,7 C 18,9 C 12,9 C 12,6 C 12,3 C 0,0 C 88 % 93 % 1017,6 hPa 0,0 l/m 0,0 km/h (0 Bft) SO 135 0 min 10,8 C 12,3 C 0,0 km/h (0 Bft)
11.08.2021 05:40 12,6 C 18,9 C 12,9 C 12,4 C 12,1 C 0,0 C 88 % 93 % 1017,6 hPa 0,0 l/m 0,0 km/h (0 Bft) SO 135 0 min 10,7 C 12,1 C 0,0 km/h (0 Bft)
11.08.2021 05:45 12,5 C 18,8 C 12,9 C 12,3 C 12,0 C 0,0 C 88 % 93 % 1017,6 hPa 0,0 l/m 0,0 km/h (0 Bft) SO 135 0 min 10,6 C 12,0 C 0,0 km/h (0 Bft)
11.08.2021 05:50 12,4 C 18,8 C 12,7 C 12,3 C 12,0 C 0,0 C 88 % 93 % 1017,6 hPa 0,0 l/m 0,0 km/h (0 Bft) SO 135 0 min 10,5 C 12,0 C 0,0 km/h (0 Bft)
11.08.2021 05:55 12,4 C 18,8 C 12,7 C 12,3 C 12,0 C 0,0 C 88 % 93 % 1017,9 hPa 0,0 l/m 0,0 km/h (0 Bft) SO 135 0 min 10,5 C 12,0 C 0,0 km/h (0 Bft)
11.08.2021 06:00 12,4 C 18,8 C 12,7 C 12,3 C 12,0 C 0,0 C 88 % 93 % 1017,9 hPa 0,0 l/m 0,0 km/h (0 Bft) SO 135 0 min 10,5 C 12,0 C 0,0 km/h (0 Bft)
11.08.2021 06:05 12,3 C 18,8 C 12,7 C 12,2 C 12,0 C 0,0 C 87 % 93 % 1017,9 hPa 0,0 l/m 0,0 km/h (0 Bft) SO 135 0 min 10,2 C 12,0 C 0,0 km/h (0 Bft)
11.08.2021 06:10 12,2 C 18,8 C 12,7 C 12,2 C 12,2 C 0,0 C 87 % 93 % 1017,9 hPa 0,0 l/m 0,0 km/h (0 Bft) SO 135 0 min 10,1 C 12,2 C 0,0 km/h (0 Bft)
11.08.2021 06:15 12,3 C 18,8 C 12,7 C 12,3 C 12,2 C 0,0 C 87 % 93 % 1017,8 hPa 0,0 l/m 0,0 km/h (0 Bft) SO 135 0 min 10,2 C 12,2 C 0,0 km/h (0 Bft)
11.08.2021 06:20 12,2 C 18,7 C 12,7 C 12,3 C 12,3 C 0,1 C 88 % 93 % 1017,8 hPa 0,0 l/m 0,0 km/h (0 Bft) SO 135 0 min 10,3 C 12,3 C 0,0 km/h (0 Bft)
11.08.2021 06:25 12,1 C 18,7 C 12,7 C 12,4 C 12,4 C 0,3 C 88 % 93 % 1017,8 hPa 0,0 l/m 0,0 km/h (0 Bft) SO 135 0 min 10,2 C 12,4 C 0,0 km/h (0 Bft)
11.08.2021 06:30 12,1 C 18,7 C 12,7 C 12,4 C 12,4 C 0,3 C 88 % 93 % 1017,8 hPa 0,0 l/m 0,0 km/h (0 Bft) SO 135 0 min 10,2 C 12,4 C 0,0 km/h (0 Bft)
11.08.2021 06:35 12,1 C 18,7 C 12,8 C 12,5 C 12,5 C 0,4 C 88 % 93 % 1017,8 hPa 0,0 l/m 0,0 km/h (0 Bft) SO 135 0 min 10,2 C 12,5 C 0,0 km/h (0 Bft)
11.08.2021 06:40 12,1 C 18,7 C 13,1 C 12,9 C 12,9 C 0,8 C 88 % 93 % 1018,1 hPa 0,0 l/m 0,0 km/h (0 Bft) SO 135 0 min 10,2 C 12,9 C 0,0 km/h (0 Bft)
11.08.2021 06:45 12,1 C 18,7 C 13,2 C 13,1 C 13,1 C 1,0 C 88 % 93 % 1018,1 hPa 0,0 l/m 0,0 km/h (0 Bft) SO 135 0 min 10,2 C 13,1 C 0,0 km/h (0 Bft)
11.08.2021 06:50 12,1 C 18,7 C 13,3 C 13,3 C 13,3 C 1,2 C 87 % 93 % 1018,1 hPa 0,0 l/m 0,0 km/h (0 Bft) SO 135 0 min 10,0 C 13,3 C 0,0 km/h (0 Bft)
11.08.2021 06:55 12,2 C 18,7 C 13,6 C 13,8 C 13,8 C 1,6 C 87 % 94 % 1018,1 hPa 0,0 l/m 0,0 km/h (0 Bft) SO 135 5 min 10,1 C 13,8 C 0,0 km/h (0 Bft)
11.08.2021 07:00 12,2 C 18,7 C 13,9 C 14,1 C 14,1 C 1,9 C 87 % 93 % 1018,1 hPa 0,0 l/m 0,0 km/h (0 Bft) SO 135 5 min 10,1 C 14,1 C 0,0 km/h (0 Bft)
11.08.2021 07:05 12,2 C 18,7 C 13,9 C 14,1 C 14,1 C 1,9 C 87 % 93 % 1018,1 hPa 0,0 l/m 0,0 km/h (0 Bft) SO 135 5 min 10,1 C 14,1 C 0,0 km/h (0 Bft)
11.08.2021 07:10 12,5 C 18,7 C 14,6 C 15,5 C 15,5 C 3,0 C 88 % 93 % 1018,1 hPa 0,0 l/m 0,0 km/h (0 Bft) S 180 5 min 10,6 C 15,5 C 0,0 km/h (0 Bft)
11.08.2021 07:15 12,8 C 18,7 C 14,7 C 17,4 C 17,4 C 4,6 C 88 % 93 % 1018,1 hPa 0,0 l/m 0,0 km/h (0 Bft) S 180 5 min 10,9 C 17,4 C 0,0 km/h (0 Bft)
11.08.2021 07:20 12,9 C 18,7 C 14,8 C 17,7 C 17,7 C 4,8 C 88 % 93 % 1018,1 hPa 0,0 l/m 0,0 km/h (0 Bft) S 180 5 min 11,0 C 17,7 C 0,0 km/h (0 Bft)
11.08.2021 07:25 13,1 C 18,7 C 14,8 C 17,2 C 17,2 C 4,1 C 88 % 93 % 1018,1 hPa 0,0 l/m 0,0 km/h (0 Bft) S 180 5 min 11,2 C 17,2 C 0,0 km/h (0 Bft)
11.08.2021 07:30 13,2 C 18,7 C 14,9 C 16,7 C 16,7 C 3,5 C 88 % 93 % 1018,1 hPa 0,0 l/m 0,0 km/h (0 Bft) S 180 5 min 11,3 C 16,7 C 0,0 km/h (0 Bft)
11.08.2021 07:35 13,3 C 18,7 C 14,9 C 16,3 C 16,3 C 3,0 C 88 % 93 % 1018,4 hPa 0,0 l/m 0,0 km/h (0 Bft) S 180 5 min 11,4 C 16,3 C 0,0 km/h (0 Bft)
11.08.2021 07:40 13,3 C 18,7 C 14,9 C 16,3 C 16,3 C 3,0 C 88 % 93 % 1018,4 hPa 0,0 l/m 0,0 km/h (0 Bft) S 180 5 min 11,4 C 16,3 C 0,0 km/h (0 Bft)
11.08.2021 07:45 13,4 C 18,7 C 14,9 C 16,0 C 16,0 C 2,6 C 88 % 93 % 1018,4 hPa 0,0 l/m 0,0 km/h (0 Bft) S 180 0 min 11,5 C 16,0 C 0,0 km/h (0 Bft)
11.08.2021 07:50 13,4 C 18,7 C 15,0 C 15,8 C 15,8 C 2,4 C 88 % 93 % 1018,4 hPa 0,0 l/m 0,0 km/h (0 Bft) SO 135 0 min 11,5 C 15,8 C 0,0 km/h (0 Bft)
11.08.2021 07:55 13,6 C 18,7 C 15,1 C 16,1 C 16,1 C 2,5 C 88 % 93 % 1018,4 hPa 0,0 l/m 0,0 km/h (0 Bft) SO 135 0 min 11,6 C 16,1 C 0,0 km/h (0 Bft)
11.08.2021 08:00 13,7 C 18,7 C 15,2 C 16,7 C 16,7 C 3,0 C 88 % 93 % 1018,5 hPa 0,0 l/m 0,0 km/h (0 Bft) S 180 0 min 11,7 C 16,7 C 0,0 km/h (0 Bft)
11.08.2021 08:05 13,9 C 18,7 C 15,2 C 16,6 C 16,6 C 2,7 C 88 % 93 % 1018,5 hPa 0,0 l/m 0,0 km/h (0 Bft) S 180 0 min 11,9 C 16,6 C 0,0 km/h (0 Bft)
11.08.2021 08:10 13,9 C 18,7 C 15,3 C 16,4 C 16,4 C 2,5 C 88 % 93 % 1018,5 hPa 0,0 l/m 0,0 km/h (0 Bft) S 180 0 min 11,9 C 16,4 C 0,0 km/h (0 Bft)
11.08.2021 08:15 14,3 C 18,6 C 15,3 C 18,9 C 18,9 C 4,6 C 88 % 93 % 1018,7 hPa 0,0 l/m 0,0 km/h (0 Bft) SO 135 5 min 12,3 C 18,9 C 0,0 km/h (0 Bft)
11.08.2021 08:20 14,8 C 18,6 C 15,5 C 21,6 C 21,6 C 6,8 C 88 % 93 % 1018,7 hPa 0,0 l/m 0,0 km/h (0 Bft) S 180 5 min 12,8 C 21,6 C 0,0 km/h (0 Bft)
11.08.2021 08:25 15,1 C 18,6 C 15,6 C 24,1 C 24,1 C 9,0 C 88 % 93 % 1018,7 hPa 0,0 l/m 0,0 km/h (0 Bft) S 180 5 min 13,1 C 24,1 C 0,0 km/h (0 Bft)
11.08.2021 08:30 15,5 C 18,6 C 15,9 C 24,4 C 24,4 C 8,9 C 88 % 93 % 1018,7 hPa 0,0 l/m 0,0 km/h (0 Bft) S 180 5 min 13,5 C 24,4 C 0,0 km/h (0 Bft)
11.08.2021 08:35 15,6 C 18,6 C 16,2 C 24,1 C 24,1 C 8,5 C 88 % 92 % 1018,8 hPa 0,0 l/m 0,0 km/h (0 Bft) S 180 5 min 13,6 C 24,1 C 0,0 km/h (0 Bft)
11.08.2021 08:40 15,7 C 18,5 C 16,4 C 23,2 C 23,2 C 7,5 C 88 % 93 % 1018,8 hPa 0,0 l/m 0,0 km/h (0 Bft) SW 225 5 min 13,7 C 23,2 C 0,0 km/h (0 Bft)
11.08.2021 08:45 15,9 C 18,5 C 16,5 C 22,3 C 22,3 C 6,4 C 88 % 92 % 1018,8 hPa 0,0 l/m 0,0 km/h (0 Bft) SO 135 5 min 13,9 C 22,3 C 0,0 km/h (0 Bft)
11.08.2021 08:50 15,7 C 18,5 C 16,6 C 21,6 C 21,6 C 5,9 C 88 % 92 % 1018,8 hPa 0,0 l/m 0,0 km/h (0 Bft) S 180 5 min 13,7 C 21,6 C 0,0 km/h (0 Bft)
11.08.2021 08:55 15,6 C 18,5 C 16,6 C 20,6 C 20,6 C 5,0 C 88 % 92 % 1018,9 hPa 0,0 l/m 0,0 km/h (0 Bft) S 180 5 min 13,6 C 20,6 C 0,0 km/h (0 Bft)
11.08.2021 09:00 15,7 C 18,4 C 16,7 C 20,3 C 20,3 C 4,6 C 88 % 92 % 1018,9 hPa 0,0 l/m 0,0 km/h (0 Bft) S 180 5 min 13,7 C 20,3 C 0,0 km/h (0 Bft)
11.08.2021 09:05 15,6 C 18,5 C 16,9 C 20,1 C 20,1 C 4,5 C 88 % 92 % 1018,9 hPa 0,0 l/m 0,0 km/h (0 Bft) S-SW 202 5 min 13,6 C 20,1 C 0,0 km/h (0 Bft)
11.08.2021 09:10 15,7 C 18,5 C 16,9 C 20,0 C 20,0 C 4,3 C 88 % 91 % 1018,9 hPa 0,0 l/m 0,0 km/h (0 Bft) W-NW 292 5 min 13,7 C 20,0 C 0,0 km/h (0 Bft)
11.08.2021 09:15 15,9 C 18,5 C 17,1 C 20,0 C 20,0 C 4,1 C 87 % 91 % 1019,1 hPa 0,0 l/m 0,2 km/h (0 Bft) NW 315 5 min 13,7 C 20,0 C 0,0 km/h (0 Bft)
11.08.2021 09:20 16,0 C 18,4 C 17,2 C 20,1 C 20,1 C 4,1 C 87 % 91 % 1019,1 hPa 0,0 l/m 0,2 km/h (0 Bft) W-NW 292 5 min 13,8 C 20,1 C 4,5 km/h (1 Bft)
11.08.2021 09:25 16,0 C 18,4 C 17,2 C 20,1 C 20,1 C 4,1 C 87 % 91 % 1019,1 hPa 0,0 l/m 0,2 km/h (0 Bft) W-NW 292 5 min 13,8 C 20,1 C 2,9 km/h (1 Bft)
11.08.2021 09:30 16,4 C 18,4 C 17,3 C 20,4 C 20,4 C 4,0 C 87 % 90 % 1019,1 hPa 0,0 l/m 0,2 km/h (0 Bft) SW 225 5 min 14,2 C 20,4 C 0,0 km/h (0 Bft)
11.08.2021 09:35 16,9 C 18,4 C 17,3 C 20,2 C 20,2 C 3,3 C 87 % 90 % 1019,2 hPa 0,0 l/m 0,2 km/h (0 Bft) SW 225 5 min 14,7 C 20,2 C 1,8 km/h (1 Bft)
11.08.2021 09:40 16,9 C 18,4 C 17,3 C 20,2 C 20,2 C 3,3 C 87 % 90 % 1019,2 hPa 0,0 l/m 0,2 km/h (0 Bft) SW 225 5 min 14,7 C 20,2 C 1,8 km/h (1 Bft)
11.08.2021 09:45 17,4 C 18,4 C 17,3 C 20,1 C 20,1 C 2,7 C 87 % 89 % 1019,2 hPa 0,0 l/m 0,3 km/h (0 Bft) SW 225 0 min 15,2 C 20,1 C 0,0 km/h (0 Bft)
11.08.2021 09:50 17,5 C 18,4 C 17,4 C 20,4 C 20,4 C 2,9 C 87 % 89 % 1019,2 hPa 0,0 l/m 0,0 km/h (0 Bft) SW 225 0 min 15,3 C 20,4 C 0,0 km/h (0 Bft)
11.08.2021 09:55 17,7 C 18,3 C 17,6 C 20,9 C 20,9 C 3,2 C 87 % 89 % 1019,4 hPa 0,0 l/m 0,0 km/h (0 Bft) SW 225 0 min 15,5 C 20,9 C 0,0 km/h (0 Bft)
11.08.2021 10:00 17,7 C 18,3 C 17,6 C 20,9 C 20,9 C 3,2 C 87 % 89 % 1019,4 hPa 0,0 l/m 0,0 km/h (0 Bft) SW 225 0 min 15,5 C 20,9 C 0,0 km/h (0 Bft)
11.08.2021 10:05 18,1 C 18,3 C 17,7 C 21,5 C 21,5 C 3,4 C 86 % 88 % 1019,4 hPa 0,0 l/m 0,0 km/h (0 Bft) W 270 5 min 15,7 C 21,5 C 1,8 km/h (1 Bft)
11.08.2021 10:10 18,1 C 18,3 C 17,7 C 21,5 C 21,5 C 3,4 C 86 % 88 % 1019,4 hPa 0,0 l/m 0,0 km/h (0 Bft) W 270 5 min 15,7 C 21,5 C 1,8 km/h (1 Bft)
11.08.2021 10:15 18,4 C 18,3 C 17,9 C 21,7 C 21,7 C 3,3 C 85 % 87 % 1019,0 hPa 0,0 l/m 0,2 km/h (0 Bft) W 270 5 min 15,8 C 21,7 C 0,0 km/h (0 Bft)
11.08.2021 10:20 18,6 C 18,3 C 18,0 C 21,8 C 21,8 C 3,2 C 85 % 87 % 1019,0 hPa 0,0 l/m 0,2 km/h (0 Bft) SW 225 0 min 16,0 C 21,8 C 0,0 km/h (0 Bft)
11.08.2021 10:25 18,7 C 18,3 C 18,1 C 22,2 C 22,2 C 3,5 C 84 % 87 % 1019,0 hPa 0,0 l/m 0,0 km/h (0 Bft) W 270 5 min 15,9 C 22,2 C 0,0 km/h (0 Bft)
11.08.2021 10:30 18,7 C 18,3 C 18,1 C 22,2 C 22,2 C 3,5 C 83 % 87 % 1019,0 hPa 0,0 l/m 0,0 km/h (0 Bft) W 270 5 min 15,8 C 22,2 C 0,0 km/h (0 Bft)
11.08.2021 10:35 18,8 C 18,3 C 18,1 C 22,1 C 22,1 C 3,3 C 82 % 87 % 1019,4 hPa 0,0 l/m 0,0 km/h (0 Bft) S-SW 202 5 min 15,7 C 22,1 C 0,0 km/h (0 Bft)
11.08.2021 10:40 18,8 C 18,3 C 18,3 C 22,2 C 22,2 C 3,4 C 82 % 86 % 1019,4 hPa 0,0 l/m 0,0 km/h (0 Bft) S 180 5 min 15,7 C 22,2 C 0,0 km/h (0 Bft)
11.08.2021 10:45 19,1 C 18,2 C 18,6 C 23,0 C 23,0 C 3,9 C 82 % 86 % 1019,4 hPa 0,0 l/m 0,0 km/h (0 Bft) SW 225 5 min 16,0 C 23,0 C 0,0 km/h (0 Bft)
11.08.2021 10:50 19,1 C 18,2 C 18,7 C 23,4 C 23,4 C 4,3 C 81 % 85 % 1019,4 hPa 0,0 l/m 0,0 km/h (0 Bft) SW 225 5 min 15,8 C 23,4 C 0,0 km/h (0 Bft)
11.08.2021 10:55 19,4 C 18,2 C 18,8 C 24,0 C 24,0 C 4,6 C 81 % 85 % 1018,9 hPa 0,0 l/m 0,0 km/h (0 Bft) SW 225 5 min 16,1 C 24,0 C 0,0 km/h (0 Bft)
11.08.2021 11:00 19,5 C 18,2 C 18,9 C 24,1 C 24,1 C 4,6 C 81 % 84 % 1018,9 hPa 0,0 l/m 0,0 km/h (0 Bft) S-SO 157 5 min 16,1 C 24,1 C 0,0 km/h (0 Bft)
11.08.2021 11:05 19,7 C 18,2 C 18,8 C 23,9 C 23,9 C 4,2 C 80 % 84 % 1018,9 hPa 0,0 l/m 0,0 km/h (0 Bft) SW 225 5 min 16,1 C 23,9 C 0,0 km/h (0 Bft)
11.08.2021 11:10 19,7 C 18,2 C 18,8 C 23,5 C 23,5 C 3,8 C 79 % 84 % 1018,9 hPa 0,0 l/m 0,0 km/h (0 Bft) SW 225 5 min 16,0 C 23,5 C 0,0 km/h (0 Bft)
11.08.2021 11:15 19,9 C 18,2 C 18,7 C 23,1 C 23,1 C 3,2 C 79 % 84 % 1019,4 hPa 0,0 l/m 0,0 km/h (0 Bft) W-SW 247 0 min 16,1 C 23,1 C 0,0 km/h (0 Bft)
11.08.2021 11:20 19,7 C 18,2 C 18,7 C 22,7 C 22,7 C 3,0 C 78 % 84 % 1019,4 hPa 0,0 l/m 0,3 km/h (0 Bft) W-SW 247 0 min 15,8 C 22,7 C 0,0 km/h (0 Bft)
11.08.2021 11:25 19,7 C 18,2 C 18,9 C 22,7 C 22,7 C 3,0 C 78 % 84 % 1019,4 hPa 0,0 l/m 0,6 km/h (0 Bft) SW 225 0 min 15,8 C 22,7 C 0,0 km/h (0 Bft)
11.08.2021 11:30 19,6 C 18,2 C 18,9 C 22,8 C 22,8 C 3,2 C 78 % 84 % 1019,4 hPa 0,0 l/m 0,5 km/h (0 Bft) SW 225 0 min 15,7 C 22,8 C 0,0 km/h (0 Bft)
11.08.2021 11:35 19,6 C 18,2 C 18,9 C 22,8 C 22,8 C 3,2 C 78 % 84 % 1019,4 hPa 0,0 l/m 0,5 km/h (0 Bft) SW 225 0 min 15,7 C 22,8 C 0,0 km/h (0 Bft)
11.08.2021 11:40 19,8 C 18,2 C 19,1 C 23,4 C 23,4 C 3,6 C 77 % 83 % 1019,6 hPa 0,0 l/m 0,3 km/h (0 Bft) NO 45 5 min 15,6 C 23,4 C 0,0 km/h (0 Bft)
11.08.2021 11:45 20,0 C 18,2 C 19,3 C 23,4 C 23,4 C 3,4 C 77 % 82 % 1019,6 hPa 0,0 l/m 0,2 km/h (0 Bft) SW 225 5 min 15,8 C 23,4 C 0,0 km/h (0 Bft)
11.08.2021 11:50 20,0 C 18,2 C 19,2 C 23,0 C 23,0 C 3,0 C 76 % 82 % 1019,6 hPa 0,0 l/m 0,3 km/h (0 Bft) W-SW 247 0 min 15,6 C 23,0 C 0,0 km/h (0 Bft)
11.08.2021 11:55 20,0 C 18,2 C 19,5 C 23,1 C 23,1 C 3,1 C 76 % 82 % 1019,5 hPa 0,0 l/m 0,3 km/h (0 Bft) SW 225 0 min 15,6 C 23,1 C 0,0 km/h (0 Bft)
11.08.2021 12:00 20,1 C 18,2 C 19,6 C 23,8 C 23,8 C 3,7 C 76 % 81 % 1019,5 hPa 0,0 l/m 0,3 km/h (0 Bft) W 270 5 min 15,7 C 23,8 C 4,2 km/h (1 Bft)
11.08.2021 12:05 20,3 C 18,2 C 19,6 C 23,8 C 23,8 C 3,5 C 76 % 81 % 1019,5 hPa 0,0 l/m 0,8 km/h (0 Bft) SW 225 5 min 15,9 C 23,8 C 4,0 km/h (1 Bft)
11.08.2021 12:10 20,3 C 18,2 C 19,6 C 23,7 C 23,7 C 3,4 C 76 % 81 % 1019,5 hPa 0,0 l/m 0,8 km/h (0 Bft) S 180 5 min 15,9 C 23,7 C 0,0 km/h (0 Bft)
11.08.2021 12:15 20,3 C 18,3 C 19,5 C 23,5 C 23,5 C 3,2 C 75 % 79 % 1019,4 hPa 0,0 l/m 1,3 km/h (1 Bft) W 270 0 min 15,7 C 23,5 C 4,3 km/h (1 Bft)
11.08.2021 12:20 20,3 C 18,3 C 19,5 C 23,2 C 23,2 C 2,9 C 75 % 80 % 1019,4 hPa 0,0 l/m 1,6 km/h (1 Bft) W-SW 247 0 min 15,7 C 23,2 C 5,1 km/h (1 Bft)
11.08.2021 12:25 20,4 C 18,3 C 19,5 C 23,3 C 23,3 C 2,9 C 75 % 81 % 1019,4 hPa 0,0 l/m 1,1 km/h (1 Bft) W-SW 247 0 min 15,8 C 23,3 C 3,9 km/h (1 Bft)
11.08.2021 12:30 20,5 C 18,3 C 19,6 C 23,6 C 23,6 C 3,1 C 75 % 80 % 1019,4 hPa 0,0 l/m 0,8 km/h (0 Bft) SW 225 0 min 15,9 C 23,6 C 6,0 km/h (2 Bft)
11.08.2021 12:35 20,6 C 18,3 C 19,8 C 24,2 C 24,2 C 3,6 C 74 % 80 % 1019,7 hPa 0,0 l/m 1,1 km/h (1 Bft) W-SW 247 5 min 15,8 C 24,2 C 0,0 km/h (0 Bft)
11.08.2021 12:40 20,7 C 18,3 C 20,4 C 25,5 C 25,5 C 4,8 C 74 % 80 % 1019,7 hPa 0,0 l/m 1,1 km/h (1 Bft) W-NW 292 5 min 15,9 C 25,5 C 2,7 km/h (1 Bft)
11.08.2021 12:45 21,2 C 18,3 C 20,6 C 26,6 C 26,6 C 5,4 C 73 % 78 % 1019,7 hPa 0,0 l/m 1,6 km/h (1 Bft) W 270 5 min 16,2 C 26,6 C 2,6 km/h (1 Bft)
11.08.2021 12:50 21,2 C 18,3 C 20,5 C 26,3 C 26,3 C 5,1 C 72 % 77 % 1019,7 hPa 0,0 l/m 1,6 km/h (1 Bft) S 180 5 min 15,9 C 26,3 C 7,4 km/h (2 Bft)
11.08.2021 12:55 21,5 C 18,3 C 20,6 C 26,9 C 26,9 C 5,4 C 72 % 77 % 1019,5 hPa 0,0 l/m 1,0 km/h (0 Bft) SW 225 5 min 16,2 C 26,9 C 2,3 km/h (1 Bft)
11.08.2021 13:00 21,9 C 18,3 C 20,7 C 27,6 C 27,6 C 5,7 C 72 % 77 % 1019,5 hPa 0,0 l/m 1,0 km/h (0 Bft) NW 315 5 min 16,6 C 27,6 C 5,6 km/h (1 Bft)
11.08.2021 13:05 21,7 C 18,3 C 20,3 C 26,1 C 26,1 C 4,4 C 69 % 75 % 1019,5 hPa 0,0 l/m 1,6 km/h (1 Bft) S 180 5 min 15,8 C 26,1 C 0,0 km/h (0 Bft)
11.08.2021 13:10 21,5 C 18,3 C 20,1 C 25,0 C 25,0 C 3,5 C 70 % 77 % 1019,5 hPa 0,0 l/m 1,1 km/h (1 Bft) SW 225 5 min 15,8 C 25,0 C 0,0 km/h (0 Bft)
11.08.2021 13:15 21,7 C 18,3 C 20,4 C 25,9 C 25,9 C 4,2 C 71 % 77 % 1019,4 hPa 0,0 l/m 0,3 km/h (0 Bft) SW 225 5 min 16,2 C 25,9 C 1,8 km/h (1 Bft)
11.08.2021 13:20 21,9 C 18,3 C 20,7 C 27,0 C 27,0 C 5,1 C 69 % 77 % 1019,4 hPa 0,0 l/m 0,6 km/h (0 Bft) W-SW 247 5 min 15,9 C 27,0 C 1,9 km/h (1 Bft)
11.08.2021 13:25 22,5 C 18,3 C 21,1 C 28,4 C 28,4 C 5,9 C 69 % 77 % 1019,4 hPa 0,0 l/m 0,8 km/h (0 Bft) SW 225 5 min 16,5 C 28,4 C 2,4 km/h (1 Bft)
11.08.2021 13:30 22,6 C 18,3 C 21,1 C 28,4 C 28,4 C 5,8 C 68 % 75 % 1019,4 hPa 0,0 l/m 1,1 km/h (1 Bft) S-SO 157 5 min 16,4 C 28,4 C 2,9 km/h (1 Bft)
11.08.2021 13:35 22,5 C 18,3 C 20,7 C 26,9 C 26,9 C 4,4 C 66 % 74 % 1019,4 hPa 0,0 l/m 1,6 km/h (1 Bft) SW 225 5 min 15,8 C 26,9 C 1,6 km/h (1 Bft)
11.08.2021 13:40 22,3 C 18,3 C 20,6 C 25,8 C 25,8 C 3,5 C 66 % 73 % 1019,4 hPa 0,0 l/m 1,3 km/h (1 Bft) SW 225 5 min 15,6 C 25,8 C 0,0 km/h (0 Bft)
11.08.2021 13:45 22,0 C 18,3 C 20,5 C 25,0 C 25,0 C 3,0 C 67 % 75 % 1019,4 hPa 0,0 l/m 1,6 km/h (1 Bft) W-SW 247 0 min 15,6 C 25,0 C 1,9 km/h (1 Bft)
11.08.2021 13:50 22,1 C 18,3 C 20,7 C 25,6 C 25,6 C 3,5 C 67 % 75 % 1019,4 hPa 0,0 l/m 1,4 km/h (1 Bft) W-SW 247 5 min 15,7 C 25,6 C 8,4 km/h (2 Bft)
11.08.2021 13:55 22,4 C 18,4 C 21,0 C 26,7 C 26,7 C 4,3 C 67 % 75 % 1019,4 hPa 0,0 l/m 1,3 km/h (1 Bft) W-NW 292 5 min 16,0 C 26,7 C 6,0 km/h (2 Bft)
11.08.2021 14:00 22,4 C 18,4 C 21,1 C 27,0 C 27,0 C 4,6 C 66 % 74 % 1019,4 hPa 0,0 l/m 1,3 km/h (1 Bft) S 180 5 min 15,7 C 27,0 C 0,0 km/h (0 Bft)
11.08.2021 14:05 22,5 C 18,4 C 21,1 C 26,5 C 26,5 C 4,0 C 65 % 72 % 1019,4 hPa 0,0 l/m 2,3 km/h (1 Bft) SW 225 5 min 15,6 C 26,5 C 0,0 km/h (0 Bft)
11.08.2021 14:10 22,5 C 18,4 C 21,1 C 26,5 C 26,5 C 4,0 C 65 % 72 % 1019,4 hPa 0,0 l/m 2,3 km/h (1 Bft) SW 225 5 min 15,6 C 26,5 C 0,0 km/h (0 Bft)
11.08.2021 14:15 22,5 C 18,4 C 21,1 C 26,3 C 26,3 C 3,8 C 65 % 72 % 1019,3 hPa 0,0 l/m 1,0 km/h (0 Bft) SO 135 5 min 15,6 C 26,3 C 0,0 km/h (0 Bft)
11.08.2021 14:20 22,5 C 18,4 C 21,0 C 25,7 C 25,7 C 3,2 C 64 % 72 % 1019,3 hPa 0,0 l/m 1,1 km/h (1 Bft) SW 225 0 min 15,3 C 25,7 C 3,2 km/h (1 Bft)
11.08.2021 14:25 22,4 C 18,4 C 21,0 C 25,7 C 25,7 C 3,3 C 64 % 72 % 1019,3 hPa 0,0 l/m 1,4 km/h (1 Bft) S 180 5 min 15,2 C 25,7 C 0,0 km/h (0 Bft)
11.08.2021 14:30 22,3 C 18,4 C 21,1 C 25,8 C 25,8 C 3,5 C 64 % 72 % 1019,3 hPa 0,0 l/m 1,4 km/h (1 Bft) W 270 5 min 15,2 C 25,8 C 0,0 km/h (0 Bft)
11.08.2021 14:35 22,3 C 18,4 C 21,1 C 26,1 C 26,1 C 3,8 C 64 % 72 % 1019,4 hPa 0,0 l/m 0,8 km/h (0 Bft) W-SW 247 5 min 15,2 C 26,1 C 4,2 km/h (1 Bft)
11.08.2021 14:40 22,5 C 18,4 C 21,2 C 26,5 C 26,5 C 4,0 C 64 % 71 % 1019,4 hPa 0,0 l/m 0,8 km/h (0 Bft) NW 315 5 min 15,3 C 26,5 C 2,3 km/h (1 Bft)
11.08.2021 14:45 22,5 C 18,4 C 21,1 C 26,7 C 26,7 C 4,2 C 64 % 69 % 1019,4 hPa 0,0 l/m 1,8 km/h (1 Bft) W-NW 292 5 min 15,3 C 26,7 C 4,3 km/h (1 Bft)
11.08.2021 14:50 22,5 C 18,4 C 21,3 C 26,8 C 26,8 C 4,3 C 64 % 71 % 1019,4 hPa 0,0 l/m 1,9 km/h (1 Bft) SW 225 5 min 15,3 C 26,8 C 3,4 km/h (1 Bft)
11.08.2021 14:55 22,7 C 18,4 C 21,5 C 27,1 C 27,1 C 4,4 C 63 % 70 % 1019,4 hPa 0,0 l/m 1,0 km/h (0 Bft) W-SW 247 5 min 15,3 C 27,1 C 2,4 km/h (1 Bft)
11.08.2021 15:00 22,7 C 18,4 C 21,6 C 27,5 C 27,5 C 4,8 C 64 % 71 % 1019,4 hPa 0,0 l/m 0,8 km/h (0 Bft) W-SW 247 5 min 15,5 C 27,5 C 2,4 km/h (1 Bft)
11.08.2021 15:05 22,8 C 18,5 C 21,7 C 27,8 C 27,8 C 5,0 C 64 % 71 % 1019,4 hPa 0,0 l/m 0,8 km/h (0 Bft) SW 225 5 min 15,6 C 27,8 C 0,0 km/h (0 Bft)
11.08.2021 15:10 22,9 C 18,5 C 21,7 C 28,0 C 28,0 C 5,1 C 63 % 70 % 1019,4 hPa 0,0 l/m 1,3 km/h (1 Bft) SW 225 5 min 15,5 C 28,0 C 1,9 km/h (1 Bft)
11.08.2021 15:15 22,8 C 18,5 C 21,6 C 27,3 C 27,3 C 4,5 C 62 % 69 % 1019,4 hPa 0,0 l/m 1,1 km/h (1 Bft) SW 225 5 min 15,1 C 27,3 C 1,9 km/h (1 Bft)
11.08.2021 15:20 22,8 C 18,5 C 21,6 C 27,0 C 27,0 C 4,2 C 62 % 69 % 1019,4 hPa 0,0 l/m 1,3 km/h (1 Bft) SW 225 5 min 15,1 C 27,0 C 2,1 km/h (1 Bft)
11.08.2021 15:25 22,7 C 18,4 C 21,7 C 27,1 C 27,1 C 4,4 C 63 % 70 % 1019,4 hPa 0,0 l/m 1,3 km/h (1 Bft) SW 225 5 min 15,3 C 27,1 C 0,0 km/h (0 Bft)
11.08.2021 15:30 22,7 C 18,4 C 21,7 C 27,3 C 27,3 C 4,6 C 62 % 70 % 1019,4 hPa 0,0 l/m 1,1 km/h (1 Bft) S-SW 202 5 min 15,0 C 27,3 C 0,0 km/h (0 Bft)
11.08.2021 15:35 22,6 C 18,4 C 21,5 C 26,7 C 26,7 C 4,1 C 62 % 69 % 1019,3 hPa 0,0 l/m 1,3 km/h (1 Bft) S 180 5 min 14,9 C 26,7 C 1,9 km/h (1 Bft)
11.08.2021 15:40 22,7 C 18,5 C 21,5 C 26,3 C 26,3 C 3,6 C 62 % 69 % 1019,3 hPa 0,0 l/m 1,0 km/h (0 Bft) SW 225 5 min 15,0 C 26,3 C 0,0 km/h (0 Bft)
11.08.2021 15:45 22,6 C 18,5 C 21,5 C 26,0 C 26,0 C 3,4 C 61 % 67 % 1019,3 hPa 0,0 l/m 1,0 km/h (0 Bft) W-SW 247 5 min 14,7 C 26,0 C 0,0 km/h (0 Bft)
11.08.2021 15:50 22,6 C 18,5 C 21,5 C 25,9 C 25,9 C 3,3 C 62 % 68 % 1019,3 hPa 0,0 l/m 1,1 km/h (1 Bft) W 270 5 min 14,9 C 25,9 C 3,4 km/h (1 Bft)
11.08.2021 15:55 22,7 C 18,5 C 21,5 C 25,8 C 25,8 C 3,1 C 61 % 69 % 1019,5 hPa 0,0 l/m 0,6 km/h (0 Bft) SW 225 0 min 14,8 C 25,8 C 2,3 km/h (1 Bft)
11.08.2021 16:00 22,7 C 18,5 C 21,4 C 25,6 C 25,6 C 2,9 C 60 % 67 % 1019,5 hPa 0,0 l/m 1,0 km/h (0 Bft) S-SW 202 0 min 14,5 C 25,6 C 0,0 km/h (0 Bft)
11.08.2021 16:05 22,4 C 18,5 C 21,4 C 25,5 C 25,5 C 3,1 C 60 % 68 % 1019,5 hPa 0,0 l/m 1,4 km/h (1 Bft) W 270 0 min 14,2 C 25,5 C 5,0 km/h (1 Bft)
11.08.2021 16:10 22,4 C 18,5 C 21,4 C 25,8 C 25,8 C 3,4 C 61 % 69 % 1019,5 hPa 0,0 l/m 1,3 km/h (1 Bft) SW 225 5 min 14,5 C 25,8 C 3,7 km/h (1 Bft)
11.08.2021 16:15 22,7 C 18,5 C 21,7 C 27,2 C 27,2 C 4,5 C 61 % 68 % 1019,4 hPa 0,0 l/m 1,3 km/h (1 Bft) W-NW 292 5 min 14,8 C 27,2 C 2,1 km/h (1 Bft)
11.08.2021 16:20 22,7 C 18,5 C 21,9 C 28,3 C 28,3 C 5,6 C 61 % 67 % 1019,4 hPa 0,0 l/m 1,6 km/h (1 Bft) O-NO 67 5 min 14,8 C 28,3 C 2,4 km/h (1 Bft)
11.08.2021 16:25 22,9 C 18,5 C 22,1 C 28,9 C 28,9 C 6,0 C 60 % 66 % 1019,4 hPa 0,0 l/m 1,8 km/h (1 Bft) W-SW 247 5 min 14,7 C 28,9 C 1,9 km/h (1 Bft)
11.08.2021 16:30 22,8 C 18,5 C 22,1 C 29,3 C 29,3 C 6,5 C 60 % 67 % 1019,4 hPa 0,0 l/m 1,6 km/h (1 Bft) S-SW 202 5 min 14,6 C 29,3 C 2,3 km/h (1 Bft)
11.08.2021 16:35 23,0 C 18,5 C 22,2 C 29,3 C 29,3 C 6,3 C 59 % 66 % 1019,4 hPa 0,0 l/m 1,3 km/h (1 Bft) SW 225 5 min 14,5 C 29,3 C 3,2 km/h (1 Bft)
11.08.2021 16:40 23,1 C 18,5 C 22,2 C 29,3 C 29,3 C 6,2 C 58 % 64 % 1019,4 hPa 0,0 l/m 1,6 km/h (1 Bft) N-NO 22 5 min 14,4 C 29,3 C 1,9 km/h (1 Bft)
11.08.2021 16:45 23,0 C 18,5 C 22,2 C 28,4 C 28,4 C 5,4 C 57 % 64 % 1019,4 hPa 0,0 l/m 1,9 km/h (1 Bft) S 180 5 min 14,0 C 28,4 C 1,8 km/h (1 Bft)
11.08.2021 16:50 23,0 C 18,5 C 22,3 C 27,9 C 27,9 C 4,9 C 57 % 64 % 1019,4 hPa 0,0 l/m 1,8 km/h (1 Bft) S-SW 202 5 min 14,0 C 27,9 C 4,2 km/h (1 Bft)
11.08.2021 16:55 23,1 C 18,5 C 22,2 C 26,5 C 26,5 C 3,4 C 56 % 62 % 1019,3 hPa 0,0 l/m 1,8 km/h (1 Bft) S-SW 202 5 min 13,8 C 26,5 C 1,6 km/h (1 Bft)
11.08.2021 17:00 23,1 C 18,5 C 22,3 C 25,9 C 25,9 C 2,8 C 56 % 62 % 1019,3 hPa 0,0 l/m 2,1 km/h (1 Bft) SW 225 0 min 13,8 C 25,9 C 2,7 km/h (1 Bft)
11.08.2021 17:05 23,0 C 18,6 C 22,3 C 25,1 C 25,1 C 2,1 C 57 % 63 % 1019,3 hPa 0,0 l/m 2,1 km/h (1 Bft) SW 225 0 min 14,0 C 25,1 C 2,6 km/h (1 Bft)
11.08.2021 17:10 23,0 C 18,6 C 22,3 C 24,6 C 24,6 C 1,6 C 57 % 63 % 1019,3 hPa 0,0 l/m 2,1 km/h (1 Bft) S-SO 157 0 min 14,0 C 24,6 C 3,5 km/h (1 Bft)
11.08.2021 17:15 23,1 C 18,6 C 22,3 C 24,3 C 24,3 C 1,2 C 57 % 63 % 1019,2 hPa 0,0 l/m 1,3 km/h (1 Bft) W-SW 247 0 min 14,1 C 24,3 C 0,0 km/h (0 Bft)
11.08.2021 17:20 23,1 C 18,5 C 22,2 C 24,1 C 24,1 C 1,0 C 57 % 61 % 1019,2 hPa 0,0 l/m 1,4 km/h (1 Bft) SW 225 0 min 14,1 C 24,1 C 4,3 km/h (1 Bft)
11.08.2021 17:25 23,2 C 18,5 C 22,3 C 24,0 C 24,0 C 0,8 C 56 % 62 % 1019,2 hPa 0,0 l/m 1,4 km/h (1 Bft) W 270 0 min 13,9 C 24,0 C 8,2 km/h (2 Bft)
11.08.2021 17:30 23,2 C 18,5 C 22,3 C 23,8 C 23,8 C 0,6 C 56 % 63 % 1019,2 hPa 0,0 l/m 1,3 km/h (1 Bft) SW 225 0 min 13,9 C 23,8 C 1,8 km/h (1 Bft)
11.08.2021 17:35 23,4 C 18,6 C 22,3 C 23,8 C 23,8 C 0,4 C 56 % 62 % 1019,1 hPa 0,0 l/m 1,3 km/h (1 Bft) SW 225 0 min 14,1 C 23,8 C 1,6 km/h (1 Bft)
11.08.2021 17:40 23,6 C 18,6 C 22,3 C 23,8 C 23,8 C 0,2 C 55 % 62 % 1019,1 hPa 0,0 l/m 0,8 km/h (0 Bft) S 180 0 min 14,0 C 23,8 C 0,0 km/h (0 Bft)
11.08.2021 17:45 23,6 C 18,6 C 22,3 C 23,7 C 23,7 C 0,1 C 56 % 63 % 1019,1 hPa 0,0 l/m 0,6 km/h (0 Bft) S-SW 202 0 min 14,3 C 23,7 C 2,1 km/h (1 Bft)
11.08.2021 17:50 23,6 C 18,6 C 22,2 C 23,7 C 23,7 C 0,1 C 54 % 62 % 1019,1 hPa 0,0 l/m 0,8 km/h (0 Bft) SW 225 0 min 13,7 C 23,7 C 2,6 km/h (1 Bft)
11.08.2021 17:55 23,5 C 18,6 C 22,3 C 23,7 C 23,7 C 0,2 C 55 % 62 % 1019,4 hPa 0,0 l/m 1,0 km/h (0 Bft) S 180 0 min 13,9 C 23,7 C 0,0 km/h (0 Bft)
11.08.2021 18:00 23,5 C 18,6 C 22,3 C 23,8 C 23,8 C 0,3 C 55 % 62 % 1019,4 hPa 0,0 l/m 0,5 km/h (0 Bft) W-SW 247 0 min 13,9 C 23,8 C 0,0 km/h (0 Bft)
11.08.2021 18:05 23,7 C 18,7 C 22,3 C 23,8 C 23,8 C 0,1 C 55 % 62 % 1019,4 hPa 0,0 l/m 0,5 km/h (0 Bft) W-SW 247 0 min 14,1 C 23,8 C 0,0 km/h (0 Bft)
11.08.2021 18:10 23,6 C 18,7 C 22,3 C 23,7 C 23,7 C 0,1 C 54 % 61 % 1019,4 hPa 0,0 l/m 1,0 km/h (0 Bft) S 180 0 min 13,7 C 23,7 C 0,0 km/h (0 Bft)
11.08.2021 18:15 23,6 C 18,7 C 22,3 C 23,6 C 23,6 C 0,0 C 54 % 63 % 1019,2 hPa 0,0 l/m 0,8 km/h (0 Bft) O-SO 112 0 min 13,7 C 23,6 C 1,6 km/h (1 Bft)
11.08.2021 18:20 23,5 C 18,7 C 22,2 C 23,5 C 23,5 C 0,0 C 54 % 62 % 1019,2 hPa 0,0 l/m 0,5 km/h (0 Bft) SW 225 0 min 13,6 C 23,5 C 0,0 km/h (0 Bft)
11.08.2021 18:25 23,4 C 18,7 C 22,1 C 23,4 C 23,4 C 0,0 C 54 % 62 % 1019,2 hPa 0,0 l/m 1,0 km/h (0 Bft) SW 225 0 min 13,6 C 23,4 C 0,0 km/h (0 Bft)
11.08.2021 18:30 23,5 C 18,7 C 22,1 C 23,4 C 23,3 C 0,0 C 54 % 61 % 1019,2 hPa 0,0 l/m 1,4 km/h (1 Bft) S 180 0 min 13,6 C 23,3 C 1,9 km/h (1 Bft)
11.08.2021 18:35 23,5 C 18,7 C 22,1 C 23,4 C 23,2 C 0,0 C 54 % 62 % 1019,4 hPa 0,0 l/m 1,1 km/h (1 Bft) S 180 0 min 13,6 C 23,2 C 2,1 km/h (1 Bft)
11.08.2021 18:40 23,5 C 18,7 C 22,1 C 23,3 C 23,0 C 0,0 C 54 % 62 % 1019,4 hPa 0,0 l/m 1,0 km/h (0 Bft) W 270 0 min 13,6 C 23,0 C 0,0 km/h (0 Bft)
11.08.2021 18:45 23,4 C 18,7 C 22,0 C 23,3 C 23,0 C 0,0 C 55 % 62 % 1019,4 hPa 0,0 l/m 1,0 km/h (0 Bft) NO 45 0 min 13,8 C 23,0 C 3,4 km/h (1 Bft)
11.08.2021 18:50 23,5 C 18,7 C 22,0 C 23,3 C 23,0 C 0,0 C 54 % 62 % 1019,4 hPa 0,0 l/m 1,0 km/h (0 Bft) W 270 0 min 13,6 C 23,0 C 1,9 km/h (1 Bft)
11.08.2021 18:55 23,5 C 18,7 C 22,0 C 23,3 C 22,9 C 0,0 C 54 % 62 % 1019,3 hPa 0,0 l/m 0,8 km/h (0 Bft) S-SW 202 0 min 13,6 C 22,9 C 0,0 km/h (0 Bft)
11.08.2021 19:00 23,5 C 18,7 C 21,9 C 23,3 C 22,8 C 0,0 C 55 % 62 % 1019,3 hPa 0,0 l/m 0,5 km/h (0 Bft) S-SW 202 0 min 13,9 C 22,8 C 0,0 km/h (0 Bft)
11.08.2021 19:05 23,5 C 18,7 C 21,8 C 23,3 C 22,9 C 0,0 C 55 % 63 % 1019,3 hPa 0,0 l/m 0,0 km/h (0 Bft) S 180 0 min 13,9 C 22,9 C 1,6 km/h (1 Bft)
11.08.2021 19:10 23,5 C 18,7 C 21,8 C 23,3 C 22,9 C 0,0 C 55 % 62 % 1019,3 hPa 0,0 l/m 0,2 km/h (0 Bft) W 270 0 min 13,9 C 22,9 C 0,0 km/h (0 Bft)
11.08.2021 19:15 23,3 C 18,7 C 21,6 C 23,1 C 22,7 C 0,0 C 55 % 63 % 1019,4 hPa 0,0 l/m 0,2 km/h (0 Bft) W-SW 247 0 min 13,7 C 22,7 C 0,0 km/h (0 Bft)
11.08.2021 19:20 23,3 C 18,8 C 21,6 C 23,0 C 22,5 C 0,0 C 54 % 63 % 1019,4 hPa 0,0 l/m 0,0 km/h (0 Bft) W-SW 247 0 min 13,5 C 22,5 C 0,0 km/h (0 Bft)
11.08.2021 19:25 23,1 C 18,8 C 21,5 C 22,8 C 22,3 C 0,0 C 54 % 64 % 1019,4 hPa 0,0 l/m 0,0 km/h (0 Bft) W-SW 247 0 min 13,3 C 22,3 C 0,0 km/h (0 Bft)
11.08.2021 19:30 23,1 C 18,8 C 21,4 C 22,8 C 22,3 C 0,0 C 55 % 64 % 1019,4 hPa 0,0 l/m 0,0 km/h (0 Bft) S 180 0 min 13,6 C 22,3 C 0,0 km/h (0 Bft)
11.08.2021 19:35 22,8 C 18,8 C 21,3 C 23,2 C 23,2 C 0,4 C 55 % 64 % 1019,5 hPa 0,0 l/m 0,2 km/h (0 Bft) W 270 0 min 13,3 C 23,2 C 0,0 km/h (0 Bft)
11.08.2021 19:40 22,7 C 18,8 C 21,3 C 23,7 C 23,7 C 1,0 C 55 % 65 % 1019,5 hPa 0,0 l/m 0,2 km/h (0 Bft) W 270 0 min 13,2 C 23,7 C 0,0 km/h (0 Bft)
11.08.2021 19:45 22,7 C 18,8 C 21,1 C 24,1 C 24,1 C 1,4 C 56 % 65 % 1019,5 hPa 0,0 l/m 0,0 km/h (0 Bft) W 270 5 min 13,5 C 24,1 C 0,0 km/h (0 Bft)
11.08.2021 19:50 22,5 C 18,8 C 21,0 C 23,9 C 23,9 C 1,4 C 56 % 66 % 1019,5 hPa 0,0 l/m 0,0 km/h (0 Bft) W 270 5 min 13,3 C 23,9 C 0,0 km/h (0 Bft)
11.08.2021 19:55 22,3 C 18,9 C 20,5 C 23,3 C 23,3 C 1,0 C 58 % 66 % 1019,5 hPa 0,0 l/m 0,0 km/h (0 Bft) W 270 5 min 13,6 C 23,3 C 0,0 km/h (0 Bft)
11.08.2021 20:00 22,1 C 18,9 C 20,2 C 22,3 C 22,3 C 0,2 C 58 % 67 % 1019,5 hPa 0,0 l/m 0,0 km/h (0 Bft) W 270 0 min 13,4 C 22,3 C 0,0 km/h (0 Bft)
11.08.2021 20:05 21,7 C 18,9 C 20,0 C 21,6 C 21,3 C 0,0 C 59 % 68 % 1019,5 hPa 0,0 l/m 0,0 km/h (0 Bft) W 270 0 min 13,3 C 21,3 C 0,0 km/h (0 Bft)
11.08.2021 20:10 21,5 C 18,9 C 19,8 C 21,3 C 20,8 C 0,0 C 59 % 69 % 1019,5 hPa 0,0 l/m 0,0 km/h (0 Bft) W 270 0 min 13,1 C 20,8 C 0,0 km/h (0 Bft)
11.08.2021 20:15 21,2 C 18,9 C 19,4 C 20,8 C 20,0 C 0,0 C 61 % 71 % 1019,6 hPa 0,0 l/m 0,0 km/h (0 Bft) W 270 0 min 13,4 C 20,0 C 0,0 km/h (0 Bft)
11.08.2021 20:20 21,0 C 18,9 C 19,2 C 20,5 C 19,6 C 0,0 C 61 % 70 % 1019,6 hPa 0,0 l/m 0,0 km/h (0 Bft) W 270 0 min 13,2 C 19,6 C 0,0 km/h (0 Bft)
11.08.2021 20:25 20,7 C 18,9 C 18,8 C 20,1 C 18,9 C 0,0 C 63 % 72 % 1019,6 hPa 0,0 l/m 0,0 km/h (0 Bft) W 270 0 min 13,4 C 18,9 C 0,0 km/h (0 Bft)
11.08.2021 20:30 20,5 C 18,9 C 18,6 C 19,9 C 18,6 C 0,0 C 64 % 73 % 1019,6 hPa 0,0 l/m 0,0 km/h (0 Bft) W 270 0 min 13,5 C 18,6 C 0,0 km/h (0 Bft)
11.08.2021 20:35 19,9 C 18,9 C 18,3 C 19,3 C 18,1 C 0,0 C 65 % 74 % 1019,5 hPa 0,0 l/m 0,0 km/h (0 Bft) W 270 0 min 13,1 C 18,1 C 0,0 km/h (0 Bft)
11.08.2021 20:40 19,7 C 18,9 C 18,1 C 19,1 C 17,8 C 0,0 C 66 % 75 % 1019,5 hPa 0,0 l/m 0,0 km/h (0 Bft) W 270 0 min 13,2 C 17,8 C 0,0 km/h (0 Bft)
11.08.2021 20:45 19,5 C 18,9 C 17,9 C 18,8 C 17,4 C 0,0 C 68 % 76 % 1019,5 hPa 0,0 l/m 0,0 km/h (0 Bft) W 270 0 min 13,4 C 17,4 C 0,0 km/h (0 Bft)
11.08.2021 20:50 19,2 C 18,9 C 17,6 C 18,5 C 17,1 C 0,0 C 68 % 76 % 1019,5 hPa 0,0 l/m 0,0 km/h (0 Bft) W 270 0 min 13,1 C 17,1 C 0,0 km/h (0 Bft)
11.08.2021 20:55 18,9 C 18,9 C 17,5 C 18,1 C 16,6 C 0,0 C 68 % 77 % 1019,8 hPa 0,0 l/m 0,0 km/h (0 Bft) W 270 0 min 12,9 C 16,6 C 0,0 km/h (0 Bft)
11.08.2021 21:00 18,7 C 18,9 C 17,3 C 17,9 C 16,3 C 0,0 C 69 % 78 % 1019,8 hPa 0,0 l/m 0,0 km/h (0 Bft) W 270 0 min 12,9 C 16,3 C 0,0 km/h (0 Bft)
11.08.2021 21:05 18,5 C 19,0 C 17,1 C 17,7 C 16,0 C 0,0 C 71 % 78 % 1019,8 hPa 0,0 l/m 0,0 km/h (0 Bft) W 270 0 min 13,1 C 16,0 C 0,0 km/h (0 Bft)
11.08.2021 21:10 18,2 C 19,0 C 16,8 C 17,4 C 15,8 C 0,0 C 71 % 79 % 1019,8 hPa 0,0 l/m 0,0 km/h (0 Bft) W 270 0 min 12,9 C 15,8 C 0,0 km/h (0 Bft)
11.08.2021 21:15 18,0 C 19,1 C 16,6 C 17,2 C 15,5 C 0,0 C 71 % 80 % 1019,9 hPa 0,0 l/m 0,0 km/h (0 Bft) W 270 0 min 12,7 C 15,5 C 0,0 km/h (0 Bft)
11.08.2021 21:20 17,9 C 19,1 C 16,5 C 17,0 C 15,2 C 0,0 C 71 % 80 % 1019,9 hPa 0,0 l/m 0,0 km/h (0 Bft) W 270 0 min 12,6 C 15,2 C 0,0 km/h (0 Bft)
11.08.2021 21:25 17,6 C 19,1 C 16,3 C 16,7 C 15,0 C 0,0 C 72 % 81 % 1019,9 hPa 0,0 l/m 0,0 km/h (0 Bft) W 270 0 min 12,5 C 15,0 C 0,0 km/h (0 Bft)
11.08.2021 21:30 17,4 C 19,1 C 16,3 C 16,6 C 14,9 C 0,0 C 72 % 81 % 1019,9 hPa 0,0 l/m 0,0 km/h (0 Bft) W 270 0 min 12,3 C 14,9 C 0,0 km/h (0 Bft)
11.08.2021 21:35 17,1 C 19,1 C 16,1 C 16,3 C 14,6 C 0,0 C 72 % 82 % 1020,1 hPa 0,0 l/m 0,0 km/h (0 Bft) W 270 0 min 12,0 C 14,6 C 0,0 km/h (0 Bft)
11.08.2021 21:40 17,0 C 19,1 C 16,0 C 16,2 C 14,5 C 0,0 C 73 % 82 % 1020,1 hPa 0,0 l/m 0,0 km/h (0 Bft) W 270 0 min 12,1 C 14,5 C 0,0 km/h (0 Bft)
11.08.2021 21:45 16,8 C 19,1 C 15,8 C 16,0 C 14,3 C 0,0 C 75 % 82 % 1020,1 hPa 0,0 l/m 0,0 km/h (0 Bft) W 270 0 min 12,3 C 14,3 C 0,0 km/h (0 Bft)
11.08.2021 21:50 16,7 C 19,1 C 15,7 C 15,9 C 14,3 C 0,0 C 75 % 83 % 1020,1 hPa 0,0 l/m 0,0 km/h (0 Bft) W 270 0 min 12,2 C 14,3 C 0,0 km/h (0 Bft)
11.08.2021 21:55 16,4 C 19,1 C 15,5 C 15,6 C 14,0 C 0,0 C 75 % 84 % 1020,3 hPa 0,0 l/m 0,0 km/h (0 Bft) W 270 0 min 12,0 C 14,0 C 0,0 km/h (0 Bft)
11.08.2021 22:00 16,3 C 19,1 C 15,5 C 15,5 C 14,0 C 0,0 C 76 % 84 % 1020,3 hPa 0,0 l/m 0,0 km/h (0 Bft) W 270 0 min 12,1 C 14,0 C 0,0 km/h (0 Bft)
11.08.2021 22:05 16,1 C 19,1 C 15,3 C 15,3 C 13,8 C 0,0 C 76 % 84 % 1020,3 hPa 0,0 l/m 0,0 km/h (0 Bft) W 270 0 min 11,9 C 13,8 C 0,0 km/h (0 Bft)
11.08.2021 22:10 16,0 C 19,1 C 15,2 C 15,3 C 13,8 C 0,0 C 77 % 84 % 1020,3 hPa 0,0 l/m 0,0 km/h (0 Bft) W 270 0 min 12,0 C 13,8 C 0,0 km/h (0 Bft)
11.08.2021 22:15 15,9 C 19,1 C 15,1 C 15,2 C 13,7 C 0,0 C 78 % 85 % 1020,4 hPa 0,0 l/m 0,0 km/h (0 Bft) W 270 0 min 12,1 C 13,7 C 0,0 km/h (0 Bft)
11.08.2021 22:20 15,6 C 19,2 C 15,0 C 14,9 C 13,5 C 0,0 C 78 % 85 % 1020,4 hPa 0,0 l/m 0,0 km/h (0 Bft) W 270 0 min 11,8 C 13,5 C 0,0 km/h (0 Bft)
11.08.2021 22:25 15,6 C 19,2 C 15,0 C 14,8 C 13,3 C 0,0 C 78 % 86 % 1020,4 hPa 0,0 l/m 0,0 km/h (0 Bft) W 270 0 min 11,8 C 13,3 C 0,0 km/h (0 Bft)
11.08.2021 22:30 15,4 C 19,2 C 14,8 C 14,7 C 13,3 C 0,0 C 79 % 86 % 1020,4 hPa 0,0 l/m 0,0 km/h (0 Bft) W 270 0 min 11,8 C 13,3 C 0,0 km/h (0 Bft)
11.08.2021 22:35 15,2 C 19,2 C 14,6 C 14,5 C 13,2 C 0,0 C 79 % 86 % 1020,2 hPa 0,0 l/m 0,0 km/h (0 Bft) W 270 0 min 11,6 C 13,2 C 0,0 km/h (0 Bft)
11.08.2021 22:40 15,1 C 19,2 C 14,6 C 14,4 C 13,1 C 0,0 C 79 % 87 % 1020,2 hPa 0,0 l/m 0,0 km/h (0 Bft) W 270 0 min 11,5 C 13,1 C 0,0 km/h (0 Bft)
11.08.2021 22:45 15,0 C 19,2 C 14,5 C 14,3 C 13,0 C 0,0 C 80 % 87 % 1020,2 hPa 0,0 l/m 0,0 km/h (0 Bft) W 270 0 min 11,6 C 13,0 C 0,0 km/h (0 Bft)
11.08.2021 22:50 14,9 C 19,2 C 14,3 C 14,2 C 12,8 C 0,0 C 80 % 86 % 1020,2 hPa 0,0 l/m 0,0 km/h (0 Bft) W 270 0 min 11,5 C 12,8 C 0,0 km/h (0 Bft)
11.08.2021 22:55 14,8 C 19,2 C 14,2 C 14,1 C 12,8 C 0,0 C 80 % 87 % 1020,6 hPa 0,0 l/m 0,0 km/h (0 Bft) W 270 0 min 11,4 C 12,8 C 0,0 km/h (0 Bft)
11.08.2021 23:00 14,6 C 19,2 C 14,2 C 14,0 C 12,8 C 0,0 C 80 % 87 % 1020,6 hPa 0,0 l/m 0,0 km/h (0 Bft) W 270 0 min 11,2 C 12,8 C 0,0 km/h (0 Bft)
11.08.2021 23:05 14,5 C 19,2 C 14,1 C 13,9 C 12,7 C 0,0 C 81 % 87 % 1020,6 hPa 0,0 l/m 0,0 km/h (0 Bft) W 270 0 min 11,3 C 12,7 C 0,0 km/h (0 Bft)
11.08.2021 23:10 14,4 C 19,2 C 14,0 C 13,8 C 12,7 C 0,0 C 81 % 88 % 1020,6 hPa 0,0 l/m 0,0 km/h (0 Bft) W 270 0 min 11,2 C 12,7 C 0,0 km/h (0 Bft)
11.08.2021 23:15 14,3 C 19,2 C 13,9 C 13,7 C 12,5 C 0,0 C 81 % 88 % 1020,5 hPa 0,0 l/m 0,0 km/h (0 Bft) W 270 0 min 11,1 C 12,5 C 0,0 km/h (0 Bft)
11.08.2021 23:20 14,2 C 19,2 C 13,9 C 13,6 C 12,4 C 0,0 C 81 % 88 % 1020,5 hPa 0,0 l/m 0,0 km/h (0 Bft) W 270 0 min 11,0 C 12,4 C 0,0 km/h (0 Bft)
11.08.2021 23:25 14,1 C 19,2 C 13,7 C 13,5 C 12,4 C 0,0 C 82 % 88 % 1020,5 hPa 0,0 l/m 0,0 km/h (0 Bft) W 270 0 min 11,1 C 12,4 C 0,0 km/h (0 Bft)
11.08.2021 23:30 14,0 C 19,2 C 13,7 C 13,5 C 12,4 C 0,0 C 82 % 88 % 1020,5 hPa 0,0 l/m 0,0 km/h (0 Bft) W 270 0 min 11,0 C 12,4 C 0,0 km/h (0 Bft)
11.08.2021 23:35 14,0 C 19,2 C 13,6 C 13,4 C 12,3 C 0,0 C 82 % 88 % 1021,3 hPa 0,0 l/m 0,0 km/h (0 Bft) W 270 0 min 11,0 C 12,3 C 0,0 km/h (0 Bft)
11.08.2021 23:40 13,9 C 19,2 C 13,6 C 13,3 C 12,2 C 0,0 C 82 % 88 % 1021,3 hPa 0,0 l/m 0,0 km/h (0 Bft) W 270 0 min 10,9 C 12,2 C 0,0 km/h (0 Bft)
11.08.2021 23:45 13,7 C 19,2 C 13,5 C 13,2 C 12,2 C 0,0 C 82 % 89 % 1021,3 hPa 0,0 l/m 0,0 km/h (0 Bft) W 270 0 min 10,7 C 12,2 C 0,0 km/h (0 Bft)
11.08.2021 23:50 13,6 C 19,1 C 13,5 C 13,1 C 12,0 C 0,0 C 82 % 89 % 1021,3 hPa 0,0 l/m 0,0 km/h (0 Bft) W 270 0 min 10,6 C 12,0 C 0,0 km/h (0 Bft)
11.08.2021 23:55 13,5 C 19,1 C 13,3 C 13,0 C 12,0 C 0,0 C 82 % 88 % 1020,8 hPa 0,0 l/m 0,0 km/h (0 Bft) W 270 0 min 10,5 C 12,0 C 0,0 km/h (0 Bft)
_ Min-Zeit 06:25 10:45 05:50 06:05 05:45 00:00 17:50 17:20 01:00 - 00:20 - - - 06:50 05:45 00:05
Minimum _ 12,1 C 18,2 C 12,7 C 12,2 C 12,0 C 0,0 C 54 % 61 % 1016,8 hPa - 0,0 km/h (0 Bft) - - - 10,0 C 12,0 C 0,0 km/h (0 Bft)
_ Max-Zeit 18:05 00:25 16:50 16:30 16:30 08:25 03:15 06:55 23:35 00:00 14:05 - - 06:55 13:00 16:30 13:50
Maximum _ 23,7 C 19,4 C 22,3 C 29,3 C 29,3 C 9,0 C 88 % 94 % 1021,3 hPa 0,0 l/m 2,3 km/h
SW (1 Bft)
- - 5 min 16,6 C 29,3 C 8,4 km/h
W-SW (2 Bft)
Durchschnitt _ 17,8 C 18,8 C 17,4 C 19,5 C 19,1 C 1,8 C 76 % 82 % 1018,8 hPa #0,0 l/m 0,4 km/h (0 Bft) SW - #8:05 h 13,3 C 19,1 C 0,7 km/h (0 Bft)
2021 www.wetterstation-wechselburg.de